sensor_id;sensor_type;location;lat;lon;timestamp;pressure;altitude;pressure_sealevel;temperature;humidity
72336;BME280;65062;48.446;8.834;2023-05-23T00:02:44;97384.94;;;13.45;97.88
72336;BME280;65062;48.446;8.834;2023-05-23T00:05:45;97381.75;;;13.36;97.51
72336;BME280;65062;48.446;8.834;2023-05-23T00:08:46;97388.00;;;13.42;99.19
72336;BME280;65062;48.446;8.834;2023-05-23T00:11:47;97392.63;;;13.53;99.22
72336;BME280;65062;48.446;8.834;2023-05-23T00:14:47;97398.69;;;13.53;99.90
72336;BME280;65062;48.446;8.834;2023-05-23T00:17:48;97399.28;;;13.55;98.32
72336;BME280;65062;48.446;8.834;2023-05-23T00:20:48;97399.91;;;13.44;98.12
72336;BME280;65062;48.446;8.834;2023-05-23T00:23:50;97396.50;;;13.44;97.93
72336;BME280;65062;48.446;8.834;2023-05-23T00:26:52;97408.22;;;13.48;97.93
72336;BME280;65062;48.446;8.834;2023-05-23T00:29:53;97402.53;;;13.44;96.89
72336;BME280;65062;48.446;8.834;2023-05-23T00:32:53;97400.13;;;13.43;97.15
72336;BME280;65062;48.446;8.834;2023-05-23T00:35:54;97404.78;;;13.41;97.04
72336;BME280;65062;48.446;8.834;2023-05-23T00:38:54;97405.41;;;13.36;97.12
72336;BME280;65062;48.446;8.834;2023-05-23T00:41:55;97410.25;;;13.33;98.33
72336;BME280;65062;48.446;8.834;2023-05-23T00:44:56;97412.88;;;13.39;98.06
72336;BME280;65062;48.446;8.834;2023-05-23T00:47:56;97415.09;;;13.36;98.60
72336;BME280;65062;48.446;8.834;2023-05-23T00:50:58;97410.84;;;13.35;99.03
72336;BME280;65062;48.446;8.834;2023-05-23T00:53:59;97408.66;;;13.38;99.45
72336;BME280;65062;48.446;8.834;2023-05-23T00:57:00;97413.66;;;13.46;99.50
72336;BME280;65062;48.446;8.834;2023-05-23T01:00:00;97422.34;;;13.53;99.44
72336;BME280;65062;48.446;8.834;2023-05-23T01:03:01;97418.50;;;13.49;99.18
72336;BME280;65062;48.446;8.834;2023-05-23T01:06:02;97415.88;;;13.49;99.47
72336;BME280;65062;48.446;8.834;2023-05-23T01:09:02;97420.34;;;13.42;99.73
72336;BME280;65062;48.446;8.834;2023-05-23T01:12:09;97416.91;;;13.42;99.62
72336;BME280;65062;48.446;8.834;2023-05-23T01:15:18;97425.19;;;13.58;99.77
72336;BME280;65062;48.446;8.834;2023-05-23T01:18:36;97422.38;;;13.47;98.74
72336;BME280;65062;48.446;8.834;2023-05-23T01:21:38;97421.16;;;13.36;98.13
72336;BME280;65062;48.446;8.834;2023-05-23T01:24:54;97424.63;;;13.37;99.08
72336;BME280;65062;48.446;8.834;2023-05-23T01:28:00;97424.41;;;13.32;99.65
72336;BME280;65062;48.446;8.834;2023-05-23T01:31:03;97410.25;;;13.39;100.00
72336;BME280;65062;48.446;8.834;2023-05-23T01:34:04;97418.50;;;13.43;100.00
72336;BME280;65062;48.446;8.834;2023-05-23T01:37:09;97426.63;;;13.54;100.00
72336;BME280;65062;48.446;8.834;2023-05-23T01:40:10;97425.19;;;13.39;99.86
72336;BME280;65062;48.446;8.834;2023-05-23T01:43:10;97430.06;;;13.48;99.88
72336;BME280;65062;48.446;8.834;2023-05-23T01:46:11;97422.97;;;13.36;98.74
72336;BME280;65062;48.446;8.834;2023-05-23T01:49:13;97433.31;;;13.31;99.19
72336;BME280;65062;48.446;8.834;2023-05-23T01:52:14;97430.47;;;13.39;99.43
72336;BME280;65062;48.446;8.834;2023-05-23T01:55:16;97436.91;;;13.43;100.00
72336;BME280;65062;48.446;8.834;2023-05-23T01:58:21;97442.19;;;13.43;99.47
72336;BME280;65062;48.446;8.834;2023-05-23T02:01:22;97441.78;;;13.59;99.02
72336;BME280;65062;48.446;8.834;2023-05-23T02:04:22;97442.19;;;13.49;97.78
72336;BME280;65062;48.446;8.834;2023-05-23T02:07:23;97441.97;;;13.51;97.68
72336;BME280;65062;48.446;8.834;2023-05-23T02:10:23;97437.53;;;13.45;97.58
72336;BME280;65062;48.446;8.834;2023-05-23T02:13:23;97437.13;;;13.48;98.12
72336;BME280;65062;48.446;8.834;2023-05-23T02:16:24;97439.94;;;13.59;97.78
72336;BME280;65062;48.446;8.834;2023-05-23T02:19:25;97428.00;;;13.50;97.79
72336;BME280;65062;48.446;8.834;2023-05-23T02:22:26;97428.63;;;13.52;98.37
72336;BME280;65062;48.446;8.834;2023-05-23T02:25:26;97424.56;;;13.56;97.67
72336;BME280;65062;48.446;8.834;2023-05-23T02:28:27;97424.19;;;13.53;97.48
72336;BME280;65062;48.446;8.834;2023-05-23T02:31:27;97430.03;;;13.61;97.43
72336;BME280;65062;48.446;8.834;2023-05-23T02:34:28;97432.25;;;13.58;96.30
72336;BME280;65062;48.446;8.834;2023-05-23T02:37:28;97433.47;;;13.55;96.27
72336;BME280;65062;48.446;8.834;2023-05-23T02:40:29;97434.88;;;13.58;96.07
72336;BME280;65062;48.446;8.834;2023-05-23T02:43:29;97434.88;;;13.64;95.55
72336;BME280;65062;48.446;8.834;2023-05-23T02:46:29;97430.41;;;13.65;96.11
72336;BME280;65062;48.446;8.834;2023-05-23T02:49:30;97439.94;;;13.59;95.97
72336;BME280;65062;48.446;8.834;2023-05-23T02:52:31;97441.56;;;13.60;96.05
72336;BME280;65062;48.446;8.834;2023-05-23T02:55:31;97443.75;;;13.63;95.66
72336;BME280;65062;48.446;8.834;2023-05-23T02:58:32;97445.56;;;13.69;95.37
72336;BME280;65062;48.446;8.834;2023-05-23T03:01:34;97443.56;;;13.65;95.65
72336;BME280;65062;48.446;8.834;2023-05-23T03:04:35;97441.34;;;13.68;95.70
72336;BME280;65062;48.446;8.834;2023-05-23T03:07:37;97441.34;;;13.68;95.40
72336;BME280;65062;48.446;8.834;2023-05-23T03:10:37;97442.72;;;13.77;95.26
72336;BME280;65062;48.446;8.834;2023-05-23T03:13:37;97444.56;;;13.70;95.49
72336;BME280;65062;48.446;8.834;2023-05-23T03:16:38;97444.53;;;13.77;95.50
72336;BME280;65062;48.446;8.834;2023-05-23T03:19:38;97444.13;;;13.80;94.50
72336;BME280;65062;48.446;8.834;2023-05-23T03:22:39;97443.72;;;13.83;95.29
72336;BME280;65062;48.446;8.834;2023-05-23T03:25:42;97446.34;;;13.89;94.68
72336;BME280;65062;48.446;8.834;2023-05-23T03:28:42;97436.06;;;13.75;94.38
72336;BME280;65062;48.446;8.834;2023-05-23T03:31:43;97435.41;;;13.86;94.05
72336;BME280;65062;48.446;8.834;2023-05-23T03:34:43;97439.25;;;13.90;94.05
72336;BME280;65062;48.446;8.834;2023-05-23T03:37:43;97436.25;;;13.80;93.63
72336;BME280;65062;48.446;8.834;2023-05-23T03:40:44;97444.94;;;13.80;94.10
72336;BME280;65062;48.446;8.834;2023-05-23T03:43:44;97442.94;;;13.76;93.09
72336;BME280;65062;48.446;8.834;2023-05-23T03:46:45;97446.16;;;13.84;93.42
72336;BME280;65062;48.446;8.834;2023-05-23T03:49:45;97446.19;;;13.65;93.46
72336;BME280;65062;48.446;8.834;2023-05-23T03:52:45;97450.00;;;13.82;92.59
72336;BME280;65062;48.446;8.834;2023-05-23T03:55:46;97444.53;;;13.77;93.25
72336;BME280;65062;48.446;8.834;2023-05-23T03:58:46;97445.38;;;13.77;92.88
72336;BME280;65062;48.446;8.834;2023-05-23T04:01:47;97447.19;;;13.77;93.69
72336;BME280;65062;48.446;8.834;2023-05-23T04:04:47;97450.00;;;13.75;93.40
72336;BME280;65062;48.446;8.834;2023-05-23T04:07:47;97446.16;;;13.84;92.31
72336;BME280;65062;48.446;8.834;2023-05-23T04:10:48;97448.56;;;13.92;92.30
72336;BME280;65062;48.446;8.834;2023-05-23T04:13:48;97451.97;;;13.93;93.86
72336;BME280;65062;48.446;8.834;2023-05-23T04:16:48;97444.28;;;13.98;93.10
72336;BME280;65062;48.446;8.834;2023-05-23T04:19:50;97448.31;;;14.07;93.15
72336;BME280;65062;48.446;8.834;2023-05-23T04:22:50;97460.66;;;14.06;91.70
72336;BME280;65062;48.446;8.834;2023-05-23T04:25:51;97454.81;;;14.04;91.76
72336;BME280;65062;48.446;8.834;2023-05-23T04:28:51;97453.38;;;14.02;92.59
72336;BME280;65062;48.446;8.834;2023-05-23T04:31:53;97459.84;;;14.06;93.11
72336;BME280;65062;48.446;8.834;2023-05-23T04:34:54;97458.25;;;13.98;94.10
72336;BME280;65062;48.446;8.834;2023-05-23T04:37:55;97461.47;;;14.00;93.64
72336;BME280;65062;48.446;8.834;2023-05-23T04:40:56;97464.50;;;14.04;94.64
72336;BME280;65062;48.446;8.834;2023-05-23T04:43:57;97466.53;;;14.08;94.63
72336;BME280;65062;48.446;8.834;2023-05-23T04:46:58;97466.28;;;14.16;93.76
72336;BME280;65062;48.446;8.834;2023-05-23T04:49:58;97465.22;;;14.37;92.70
72336;BME280;65062;48.446;8.834;2023-05-23T04:52:59;97468.25;;;14.40;92.06
72336;BME280;65062;48.446;8.834;2023-05-23T04:55:59;97467.00;;;14.49;92.18
72336;BME280;65062;48.446;8.834;2023-05-23T04:59:00;97469.78;;;14.54;92.05
72336;BME280;65062;48.446;8.834;2023-05-23T05:02:00;97476.06;;;14.60;92.51
72336;BME280;65062;48.446;8.834;2023-05-23T05:05:01;97473.22;;;14.61;90.21
72336;BME280;65062;48.446;8.834;2023-05-23T05:08:01;97470.31;;;14.69;90.93
72336;BME280;65062;48.446;8.834;2023-05-23T05:11:02;97479.66;;;14.72;91.76
72336;BME280;65062;48.446;8.834;2023-05-23T05:14:02;97484.31;;;14.70;91.16
72336;BME280;65062;48.446;8.834;2023-05-23T05:17:03;97485.25;;;14.82;90.83
72336;BME280;65062;48.446;8.834;2023-05-23T05:20:04;97483.66;;;14.75;91.74
72336;BME280;65062;48.446;8.834;2023-05-23T05:23:07;97493.38;;;14.81;90.21
72336;BME280;65062;48.446;8.834;2023-05-23T05:26:09;97499.13;;;14.64;90.75
72336;BME280;65062;48.446;8.834;2023-05-23T05:29:09;97491.44;;;14.63;91.80
72336;BME280;65062;48.446;8.834;2023-05-23T05:32:10;97490.00;;;14.60;91.88
72336;BME280;65062;48.446;8.834;2023-05-23T05:35:10;97495.69;;;14.64;91.44
72336;BME280;65062;48.446;8.834;2023-05-23T05:38:13;97499.47;;;14.75;91.96
72336;BME280;65062;48.446;8.834;2023-05-23T05:41:13;97494.00;;;14.76;92.21
72336;BME280;65062;48.446;8.834;2023-05-23T05:44:13;97507.13;;;14.83;90.41
72336;BME280;65062;48.446;8.834;2023-05-23T05:47:14;97508.75;;;14.84;90.38
72336;BME280;65062;48.446;8.834;2023-05-23T05:50:15;97506.28;;;14.89;90.98
72336;BME280;65062;48.446;8.834;2023-05-23T05:53:15;97512.22;;;14.78;88.74
72336;BME280;65062;48.446;8.834;2023-05-23T05:56:16;97513.31;;;15.01;89.24
72336;BME280;65062;48.446;8.834;2023-05-23T05:59:16;97506.38;;;15.07;89.21
72336;BME280;65062;48.446;8.834;2023-05-23T06:02:17;97512.25;;;15.09;89.85
72336;BME280;65062;48.446;8.834;2023-05-23T06:05:17;97514.53;;;14.99;89.85
72336;BME280;65062;48.446;8.834;2023-05-23T06:08:18;97516.19;;;14.93;91.09
72336;BME280;65062;48.446;8.834;2023-05-23T06:11:18;97512.81;;;15.11;90.23
72336;BME280;65062;48.446;8.834;2023-05-23T06:14:18;97515.00;;;15.20;88.88
72336;BME280;65062;48.446;8.834;2023-05-23T06:17:19;97518.78;;;15.31;88.98
72336;BME280;65062;48.446;8.834;2023-05-23T06:20:19;97510.28;;;15.29;89.41
72336;BME280;65062;48.446;8.834;2023-05-23T06:23:20;97513.09;;;15.34;89.04
72336;BME280;65062;48.446;8.834;2023-05-23T06:26:20;97523.81;;;15.39;87.52
72336;BME280;65062;48.446;8.834;2023-05-23T06:29:20;97523.78;;;15.45;88.83
72336;BME280;65062;48.446;8.834;2023-05-23T06:32:21;97519.84;;;15.54;89.11
72336;BME280;65062;48.446;8.834;2023-05-23T06:35:21;97519.88;;;15.72;89.43
72336;BME280;65062;48.446;8.834;2023-05-23T06:38:22;97518.09;;;15.91;86.97
72336;BME280;65062;48.446;8.834;2023-05-23T06:41:22;97522.06;;;16.00;87.29
72336;BME280;65062;48.446;8.834;2023-05-23T06:44:22;97517.56;;;16.00;87.51
72336;BME280;65062;48.446;8.834;2023-05-23T06:47:23;97521.28;;;16.17;87.06
72336;BME280;65062;48.446;8.834;2023-05-23T06:50:23;97531.09;;;16.28;86.56
72336;BME280;65062;48.446;8.834;2023-05-23T06:53:24;97531.34;;;16.45;85.76
72336;BME280;65062;48.446;8.834;2023-05-23T06:56:24;97530.31;;;16.64;83.68
72336;BME280;65062;48.446;8.834;2023-05-23T06:59:25;97531.44;;;16.86;84.57
72336;BME280;65062;48.446;8.834;2023-05-23T07:02:25;97528.75;;;17.04;83.68
72336;BME280;65062;48.446;8.834;2023-05-23T07:05:26;97529.91;;;17.08;83.09
72336;BME280;65062;48.446;8.834;2023-05-23T07:08:27;97534.75;;;17.11;83.04
72336;BME280;65062;48.446;8.834;2023-05-23T07:11:27;97529.50;;;17.23;83.66
72336;BME280;65062;48.446;8.834;2023-05-23T07:14:28;97538.78;;;17.43;82.61
72336;BME280;65062;48.446;8.834;2023-05-23T07:17:28;97543.88;;;17.68;81.23
72336;BME280;65062;48.446;8.834;2023-05-23T07:20:32;97538.94;;;17.83;81.88
72336;BME280;65062;48.446;8.834;2023-05-23T07:23:33;97543.66;;;18.15;80.13
72336;BME280;65062;48.446;8.834;2023-05-23T07:26:33;97543.78;;;18.43;77.51
72336;BME280;65062;48.446;8.834;2023-05-23T07:29:34;97545.19;;;18.74;77.91
72336;BME280;65062;48.446;8.834;2023-05-23T07:32:35;97553.44;;;18.89;75.54
72336;BME280;65062;48.446;8.834;2023-05-23T07:35:35;97552.63;;;19.17;74.04
72336;BME280;65062;48.446;8.834;2023-05-23T07:38:35;97549.91;;;19.73;72.03
72336;BME280;65062;48.446;8.834;2023-05-23T07:41:36;97548.22;;;20.00;71.42
72336;BME280;65062;48.446;8.834;2023-05-23T07:44:36;97551.63;;;19.79;67.76
72336;BME280;65062;48.446;8.834;2023-05-23T07:47:37;97550.63;;;19.52;69.35
72336;BME280;65062;48.446;8.834;2023-05-23T07:50:40;97557.06;;;19.39;69.31
72336;BME280;65062;48.446;8.834;2023-05-23T07:53:41;97550.75;;;19.29;69.36
72336;BME280;65062;48.446;8.834;2023-05-23T07:56:41;97547.91;;;19.19;69.93
72336;BME280;65062;48.446;8.834;2023-05-23T07:59:42;97546.03;;;19.03;71.40
72336;BME280;65062;48.446;8.834;2023-05-23T08:02:42;97542.97;;;19.39;70.57
72336;BME280;65062;48.446;8.834;2023-05-23T08:05:43;97547.19;;;19.23;71.10
72336;BME280;65062;48.446;8.834;2023-05-23T08:08:43;97559.81;;;19.16;71.41
72336;BME280;65062;48.446;8.834;2023-05-23T08:11:43;97559.34;;;18.91;72.11
72336;BME280;65062;48.446;8.834;2023-05-23T08:14:44;97546.59;;;18.65;73.10
72336;BME280;65062;48.446;8.834;2023-05-23T08:17:44;97555.16;;;18.55;71.60
72336;BME280;65062;48.446;8.834;2023-05-23T08:20:45;97557.47;;;18.52;72.56
72336;BME280;65062;48.446;8.834;2023-05-23T08:23:45;97570.03;;;18.45;72.32
72336;BME280;65062;48.446;8.834;2023-05-23T08:26:46;97567.03;;;18.30;72.51
72336;BME280;65062;48.446;8.834;2023-05-23T08:29:47;97567.38;;;18.33;74.03
72336;BME280;65062;48.446;8.834;2023-05-23T08:32:48;97574.53;;;18.44;72.46
72336;BME280;65062;48.446;8.834;2023-05-23T08:35:48;97578.56;;;18.58;71.65
72336;BME280;65062;48.446;8.834;2023-05-23T08:38:49;97577.34;;;18.78;73.25
72336;BME280;65062;48.446;8.834;2023-05-23T08:41:49;97579.72;;;18.91;71.07
72336;BME280;65062;48.446;8.834;2023-05-23T08:44:50;97583.81;;;19.10;70.89
72336;BME280;65062;48.446;8.834;2023-05-23T08:47:51;97595.41;;;19.32;68.37
72336;BME280;65062;48.446;8.834;2023-05-23T08:50:51;97594.13;;;18.95;68.66
72336;BME280;65062;48.446;8.834;2023-05-23T08:53:52;97600.56;;;18.71;69.68
72336;BME280;65062;48.446;8.834;2023-05-23T08:56:55;97601.00;;;18.67;69.95
72336;BME280;65062;48.446;8.834;2023-05-23T08:59:56;97602.41;;;18.58;69.38
72336;BME280;65062;48.446;8.834;2023-05-23T09:02:58;97610.94;;;18.49;67.58
72336;BME280;65062;48.446;8.834;2023-05-23T09:05:58;97613.13;;;18.52;69.41
72336;BME280;65062;48.446;8.834;2023-05-23T09:08:59;97618.09;;;18.37;68.77
72336;BME280;65062;48.446;8.834;2023-05-23T09:11:59;97623.75;;;18.40;68.52
72336;BME280;65062;48.446;8.834;2023-05-23T09:15:03;97624.88;;;18.56;68.36
72336;BME280;65062;48.446;8.834;2023-05-23T09:18:04;97630.06;;;18.62;67.37
72336;BME280;65062;48.446;8.834;2023-05-23T09:21:05;97637.66;;;18.71;68.31
72336;BME280;65062;48.446;8.834;2023-05-23T09:24:06;97639.34;;;18.77;67.60
72336;BME280;65062;48.446;8.834;2023-05-23T09:27:07;97638.22;;;18.73;66.42
72336;BME280;65062;48.446;8.834;2023-05-23T09:30:09;97637.69;;;18.99;66.21
72336;BME280;65062;48.446;8.834;2023-05-23T09:33:13;97640.47;;;19.04;64.26
72336;BME280;65062;48.446;8.834;2023-05-23T09:36:13;97644.13;;;19.54;64.62
72336;BME280;65062;48.446;8.834;2023-05-23T09:39:14;97640.25;;;19.89;62.51
72336;BME280;65062;48.446;8.834;2023-05-23T09:42:19;97652.59;;;20.28;59.58
72336;BME280;65062;48.446;8.834;2023-05-23T09:45:31;97644.19;;;20.53;59.99
72336;BME280;65062;48.446;8.834;2023-05-23T09:48:31;97637.13;;;20.80;58.42
72336;BME280;65062;48.446;8.834;2023-05-23T09:51:32;97643.03;;;21.52;57.00
72336;BME280;65062;48.446;8.834;2023-05-23T09:54:33;97642.22;;;20.65;57.46
72336;BME280;65062;48.446;8.834;2023-05-23T09:57:34;97647.00;;;21.01;59.54
72336;BME280;65062;48.446;8.834;2023-05-23T10:00:38;97651.69;;;21.37;56.31
72336;BME280;65062;48.446;8.834;2023-05-23T10:03:44;97646.56;;;21.79;53.58
72336;BME280;65062;48.446;8.834;2023-05-23T10:07:12;97659.03;;;22.05;52.70
72336;BME280;65062;48.446;8.834;2023-05-23T10:10:16;97653.09;;;21.45;52.01
72336;BME280;65062;48.446;8.834;2023-05-23T10:13:18;97653.75;;;20.71;55.82
72336;BME280;65062;48.446;8.834;2023-05-23T10:16:26;97657.63;;;20.63;55.78
72336;BME280;65062;48.446;8.834;2023-05-23T10:19:46;97664.16;;;20.55;56.50
72336;BME280;65062;48.446;8.834;2023-05-23T10:22:47;97663.13;;;20.40;56.02
72336;BME280;65062;48.446;8.834;2023-05-23T10:25:49;97656.09;;;20.01;56.76
72336;BME280;65062;48.446;8.834;2023-05-23T10:28:51;97659.19;;;20.26;57.08
72336;BME280;65062;48.446;8.834;2023-05-23T10:31:52;97648.13;;;20.50;57.02
72336;BME280;65062;48.446;8.834;2023-05-23T10:35:17;97643.69;;;20.56;55.71
72336;BME280;65062;48.446;8.834;2023-05-23T10:41:51;97646.91;;;21.39;54.89
72336;BME280;65062;48.446;8.834;2023-05-23T10:45:13;97647.38;;;21.10;51.43
72336;BME280;65062;48.446;8.834;2023-05-23T10:48:34;97644.50;;;20.95;55.53
72336;BME280;65062;48.446;8.834;2023-05-23T10:51:37;97632.84;;;21.22;54.13
72336;BME280;65062;48.446;8.834;2023-05-23T10:55:08;97643.50;;;21.44;52.81
72336;BME280;65062;48.446;8.834;2023-05-23T10:58:14;97639.47;;;21.68;52.43
72336;BME280;65062;48.446;8.834;2023-05-23T11:01:15;97638.81;;;21.77;53.72
72336;BME280;65062;48.446;8.834;2023-05-23T11:04:26;97644.06;;;22.30;50.65
72336;BME280;65062;48.446;8.834;2023-05-23T11:07:29;97648.38;;;21.73;51.48
72336;BME280;65062;48.446;8.834;2023-05-23T11:10:32;97641.22;;;22.10;50.39
72336;BME280;65062;48.446;8.834;2023-05-23T11:13:57;97631.59;;;22.04;50.74
72336;BME280;65062;48.446;8.834;2023-05-23T11:20:11;97636.91;;;22.83;49.91
72336;BME280;65062;48.446;8.834;2023-05-23T11:23:12;97633.75;;;23.62;47.50
72336;BME280;65062;48.446;8.834;2023-05-23T11:26:28;97623.03;;;23.42;45.41
72336;BME280;65062;48.446;8.834;2023-05-23T11:29:29;97627.00;;;23.25;47.80
72336;BME280;65062;48.446;8.834;2023-05-23T11:32:30;97625.00;;;22.95;48.60
72336;BME280;65062;48.446;8.834;2023-05-23T11:35:31;97619.63;;;23.62;46.50
72336;BME280;65062;48.446;8.834;2023-05-23T11:38:31;97616.44;;;23.85;45.85
72336;BME280;65062;48.446;8.834;2023-05-23T11:41:34;97620.94;;;23.54;44.66
72336;BME280;65062;48.446;8.834;2023-05-23T11:44:34;97615.31;;;24.76;44.28
72336;BME280;65062;48.446;8.834;2023-05-23T11:47:40;97604.38;;;25.31;41.46
72336;BME280;65062;48.446;8.834;2023-05-23T11:50:48;97610.41;;;25.95;41.77
72336;BME280;65062;48.446;8.834;2023-05-23T11:53:49;97619.25;;;25.96;41.26
72336;BME280;65062;48.446;8.834;2023-05-23T11:56:49;97612.19;;;27.14;40.18
72336;BME280;65062;48.446;8.834;2023-05-23T11:59:50;97596.63;;;27.53;37.44
72336;BME280;65062;48.446;8.834;2023-05-23T12:02:50;97599.50;;;25.43;39.25
72336;BME280;65062;48.446;8.834;2023-05-23T12:05:51;97598.13;;;25.89;40.62
72336;BME280;65062;48.446;8.834;2023-05-23T12:08:51;97612.91;;;26.78;40.34
72336;BME280;65062;48.446;8.834;2023-05-23T12:11:52;97608.19;;;27.35;38.82
72336;BME280;65062;48.446;8.834;2023-05-23T12:14:55;97602.25;;;27.57;36.14
72336;BME280;65062;48.446;8.834;2023-05-23T12:17:55;97606.63;;;28.81;35.21
72336;BME280;65062;48.446;8.834;2023-05-23T12:20:59;97596.94;;;29.34;31.87
72336;BME280;65062;48.446;8.834;2023-05-23T12:24:11;97606.44;;;28.64;34.31
72336;BME280;65062;48.446;8.834;2023-05-23T12:27:11;97604.25;;;28.02;35.42
72336;BME280;65062;48.446;8.834;2023-05-23T12:30:13;97603.81;;;26.97;38.22
72336;BME280;65062;48.446;8.834;2023-05-23T12:33:14;97604.31;;;26.99;38.16
72336;BME280;65062;48.446;8.834;2023-05-23T12:36:15;97603.72;;;26.84;37.57
72336;BME280;65062;48.446;8.834;2023-05-23T12:39:24;97599.19;;;29.05;33.07
72336;BME280;65062;48.446;8.834;2023-05-23T12:42:26;97589.69;;;29.92;32.69
72336;BME280;65062;48.446;8.834;2023-05-23T12:45:34;97594.84;;;30.55;31.10
72336;BME280;65062;48.446;8.834;2023-05-23T12:48:35;97594.78;;;30.16;31.84
72336;BME280;65062;48.446;8.834;2023-05-23T12:51:36;97591.28;;;30.38;32.58
72336;BME280;65062;48.446;8.834;2023-05-23T12:54:36;97590.78;;;29.07;32.89
72336;BME280;65062;48.446;8.834;2023-05-23T12:57:36;97597.44;;;27.72;35.48
72336;BME280;65062;48.446;8.834;2023-05-23T13:00:37;97590.88;;;28.29;34.75
72336;BME280;65062;48.446;8.834;2023-05-23T13:03:37;97595.97;;;29.17;32.05
72336;BME280;65062;48.446;8.834;2023-05-23T13:06:37;97602.44;;;28.62;33.31
72336;BME280;65062;48.446;8.834;2023-05-23T13:09:38;97595.56;;;28.69;33.27
72336;BME280;65062;48.446;8.834;2023-05-23T13:12:39;97584.06;;;28.18;33.62
72336;BME280;65062;48.446;8.834;2023-05-23T13:15:39;97591.56;;;28.53;33.27
72336;BME280;65062;48.446;8.834;2023-05-23T13:18:40;97592.84;;;28.96;31.74
72336;BME280;65062;48.446;8.834;2023-05-23T13:21:41;97597.94;;;28.98;31.67
72336;BME280;65062;48.446;8.834;2023-05-23T13:24:42;97598.31;;;27.49;32.39
72336;BME280;65062;48.446;8.834;2023-05-23T13:27:43;97602.19;;;28.12;31.34
72336;BME280;65062;48.446;8.834;2023-05-23T13:30:43;97614.88;;;28.58;31.68
72336;BME280;65062;48.446;8.834;2023-05-23T13:33:43;97591.78;;;30.40;30.46
72336;BME280;65062;48.446;8.834;2023-05-23T13:36:44;97596.75;;;30.77;27.74
72336;BME280;65062;48.446;8.834;2023-05-23T13:39:44;97599.09;;;30.48;29.06
72336;BME280;65062;48.446;8.834;2023-05-23T13:42:47;97594.53;;;32.37;26.41
72336;BME280;65062;48.446;8.834;2023-05-23T13:45:47;97595.94;;;32.98;24.62
72336;BME280;65062;48.446;8.834;2023-05-23T13:48:48;97597.16;;;33.09;23.49
72336;BME280;65062;48.446;8.834;2023-05-23T13:51:48;97589.38;;;33.28;23.43
72336;BME280;65062;48.446;8.834;2023-05-23T13:54:49;97587.91;;;33.59;24.38
72336;BME280;65062;48.446;8.834;2023-05-23T13:57:49;97595.47;;;34.84;21.76
72336;BME280;65062;48.446;8.834;2023-05-23T14:00:50;97583.44;;;35.69;20.78
72336;BME280;65062;48.446;8.834;2023-05-23T14:03:50;97593.81;;;35.92;20.21
72336;BME280;65062;48.446;8.834;2023-05-23T14:06:50;97592.00;;;34.07;22.66
72336;BME280;65062;48.446;8.834;2023-05-23T14:09:51;97593.66;;;34.64;22.34
72336;BME280;65062;48.446;8.834;2023-05-23T14:12:51;97588.50;;;32.86;24.28
72336;BME280;65062;48.446;8.834;2023-05-23T14:15:51;97575.78;;;33.57;22.97
72336;BME280;65062;48.446;8.834;2023-05-23T14:18:53;97574.88;;;33.73;23.32
72336;BME280;65062;48.446;8.834;2023-05-23T14:21:53;97580.06;;;35.24;22.64
72336;BME280;65062;48.446;8.834;2023-05-23T14:24:53;97584.69;;;34.64;21.23
72336;BME280;65062;48.446;8.834;2023-05-23T14:27:54;97596.34;;;31.82;25.07
72336;BME280;65062;48.446;8.834;2023-05-23T14:30:55;97598.38;;;30.95;25.72
72336;BME280;65062;48.446;8.834;2023-05-23T14:33:55;97585.03;;;31.54;26.17
72336;BME280;65062;48.446;8.834;2023-05-23T14:36:56;97579.25;;;31.39;25.96
72336;BME280;65062;48.446;8.834;2023-05-23T14:39:56;97586.91;;;33.64;24.19
72336;BME280;65062;48.446;8.834;2023-05-23T14:42:56;97584.81;;;32.91;24.05
72336;BME280;65062;48.446;8.834;2023-05-23T14:45:57;97602.81;;;30.91;27.05
72336;BME280;65062;48.446;8.834;2023-05-23T14:48:58;97614.59;;;27.95;31.92
72336;BME280;65062;48.446;8.834;2023-05-23T14:51:58;97618.75;;;26.27;36.77
72336;BME280;65062;48.446;8.834;2023-05-23T14:54:59;97617.97;;;24.91;38.34
72336;BME280;65062;48.446;8.834;2023-05-23T14:58:00;97625.75;;;25.46;38.24
72336;BME280;65062;48.446;8.834;2023-05-23T15:01:02;97618.25;;;25.48;36.75
72336;BME280;65062;48.446;8.834;2023-05-23T15:04:02;97625.50;;;23.89;40.34
72336;BME280;65062;48.446;8.834;2023-05-23T15:07:04;97616.47;;;22.98;41.79
72336;BME280;65062;48.446;8.834;2023-05-23T15:10:05;97609.59;;;23.22;41.48
72336;BME280;65062;48.446;8.834;2023-05-23T15:13:07;97612.38;;;23.62;41.47
72336;BME280;65062;48.446;8.834;2023-05-23T15:16:08;97607.88;;;24.48;38.91
72336;BME280;65062;48.446;8.834;2023-05-23T15:19:08;97602.16;;;26.78;35.00
72336;BME280;65062;48.446;8.834;2023-05-23T15:22:08;97599.69;;;26.81;35.06
72336;BME280;65062;48.446;8.834;2023-05-23T15:25:09;97589.09;;;27.55;33.02
72336;BME280;65062;48.446;8.834;2023-05-23T15:28:09;97588.28;;;27.36;32.81
72336;BME280;65062;48.446;8.834;2023-05-23T15:31:09;97578.31;;;26.95;31.44
72336;BME280;65062;48.446;8.834;2023-05-23T15:34:10;97584.75;;;26.99;32.71
72336;BME280;65062;48.446;8.834;2023-05-23T15:37:10;97591.13;;;25.93;34.74
72336;BME280;65062;48.446;8.834;2023-05-23T15:40:11;97591.00;;;23.62;38.97
72336;BME280;65062;48.446;8.834;2023-05-23T15:43:11;97589.50;;;23.05;39.98
72336;BME280;65062;48.446;8.834;2023-05-23T15:46:12;97602.34;;;22.56;42.37
72336;BME280;65062;48.446;8.834;2023-05-23T15:49:12;97603.09;;;22.10;42.34
72336;BME280;65062;48.446;8.834;2023-05-23T15:52:13;97600.19;;;21.80;43.25
72336;BME280;65062;48.446;8.834;2023-05-23T15:55:13;97605.38;;;21.38;44.59
72336;BME280;65062;48.446;8.834;2023-05-23T15:58:14;97594.91;;;20.89;45.67
72336;BME280;65062;48.446;8.834;2023-05-23T16:01:14;97598.72;;;20.93;46.71
72336;BME280;65062;48.446;8.834;2023-05-23T16:04:14;97596.41;;;21.23;47.31
72336;BME280;65062;48.446;8.834;2023-05-23T16:07:15;97593.31;;;21.31;45.93
72336;BME280;65062;48.446;8.834;2023-05-23T16:10:15;97591.53;;;21.15;47.66